sensor_id;sensor_type;location;lat;lon;timestamp;pressure;altitude;pressure_sealevel;temperature;humidity
71907;BME280;59781;52.090;5.030;2023-03-04T00:02:01;102657.25;;;6.54;84.16
71907;BME280;59781;52.090;5.030;2023-03-04T00:04:27;102659.50;;;6.33;84.24
71907;BME280;59781;52.090;5.030;2023-03-04T00:06:53;102665.72;;;6.33;85.21
71907;BME280;59781;52.090;5.030;2023-03-04T00:09:18;102656.69;;;6.22;85.54
71907;BME280;59781;52.090;5.030;2023-03-04T00:11:45;102655.63;;;6.24;86.63
71907;BME280;59781;52.090;5.030;2023-03-04T00:14:11;102661.19;;;6.48;84.64
71907;BME280;59781;52.090;5.030;2023-03-04T00:16:37;102662.59;;;6.13;86.79
71907;BME280;59781;52.090;5.030;2023-03-04T00:19:03;102659.13;;;6.39;85.76
71907;BME280;59781;52.090;5.030;2023-03-04T00:21:29;102662.78;;;6.24;85.87
71907;BME280;59781;52.090;5.030;2023-03-04T00:23:55;102666.09;;;6.42;85.08
71907;BME280;59781;52.090;5.030;2023-03-04T00:26:21;102662.03;;;6.08;85.59
71907;BME280;59781;52.090;5.030;2023-03-04T00:28:46;102660.78;;;6.13;85.78
71907;BME280;59781;52.090;5.030;2023-03-04T00:31:12;102659.06;;;5.98;87.22
71907;BME280;59781;52.090;5.030;2023-03-04T00:33:38;102665.56;;;6.22;86.32
71907;BME280;59781;52.090;5.030;2023-03-04T00:36:05;102666.78;;;6.31;85.15
71907;BME280;59781;52.090;5.030;2023-03-04T00:38:31;102664.88;;;6.33;85.94
71907;BME280;59781;52.090;5.030;2023-03-04T00:40:57;102664.31;;;6.55;84.25
71907;BME280;59781;52.090;5.030;2023-03-04T00:43:22;102665.81;;;6.32;84.88
71907;BME280;59781;52.090;5.030;2023-03-04T00:45:48;102658.31;;;6.51;85.89
71907;BME280;59781;52.090;5.030;2023-03-04T00:48:14;102657.59;;;6.35;85.65
71907;BME280;59781;52.090;5.030;2023-03-04T00:50:41;102667.00;;;6.14;87.58
71907;BME280;59781;52.090;5.030;2023-03-04T00:53:07;102662.03;;;6.22;87.24
71907;BME280;59781;52.090;5.030;2023-03-04T00:55:33;102656.19;;;6.56;85.00
71907;BME280;59781;52.090;5.030;2023-03-04T00:57:59;102661.63;;;6.28;86.50
71907;BME280;59781;52.090;5.030;2023-03-04T01:00:24;102662.56;;;6.27;86.27
71907;BME280;59781;52.090;5.030;2023-03-04T01:02:50;102663.06;;;6.60;84.71
71907;BME280;59781;52.090;5.030;2023-03-04T01:05:16;102672.72;;;6.63;84.67
71907;BME280;59781;52.090;5.030;2023-03-04T01:07:42;102666.47;;;6.36;86.03
71907;BME280;59781;52.090;5.030;2023-03-04T01:10:11;102664.28;;;6.28;86.84
71907;BME280;59781;52.090;5.030;2023-03-04T01:12:38;102666.41;;;6.23;87.56
71907;BME280;59781;52.090;5.030;2023-03-04T01:15:09;102667.06;;;6.41;88.27
71907;BME280;59781;52.090;5.030;2023-03-04T01:17:39;102663.53;;;6.26;87.97
71907;BME280;59781;52.090;5.030;2023-03-04T01:20:07;102650.19;;;6.12;86.55
71907;BME280;59781;52.090;5.030;2023-03-04T01:22:34;102652.94;;;6.24;86.65
71907;BME280;59781;52.090;5.030;2023-03-04T01:25:00;102657.06;;;6.16;87.02
71907;BME280;59781;52.090;5.030;2023-03-04T01:27:26;102658.81;;;6.44;85.88
71907;BME280;59781;52.090;5.030;2023-03-04T01:29:52;102660.59;;;6.30;86.47
71907;BME280;59781;52.090;5.030;2023-03-04T01:32:18;102651.44;;;6.20;86.48
71907;BME280;59781;52.090;5.030;2023-03-04T01:34:44;102647.00;;;6.19;87.41
71907;BME280;59781;52.090;5.030;2023-03-04T01:37:10;102637.63;;;6.26;86.64
71907;BME280;59781;52.090;5.030;2023-03-04T01:39:37;102637.50;;;6.01;87.75
71907;BME280;59781;52.090;5.030;2023-03-04T01:42:04;102639.09;;;6.18;87.08
71907;BME280;59781;52.090;5.030;2023-03-04T01:44:31;102640.13;;;6.29;85.19
71907;BME280;59781;52.090;5.030;2023-03-04T01:46:57;102626.66;;;6.31;82.99
71907;BME280;59781;52.090;5.030;2023-03-04T01:49:24;102625.09;;;6.00;84.59
71907;BME280;59781;52.090;5.030;2023-03-04T01:51:53;102621.53;;;5.99;83.77
71907;BME280;59781;52.090;5.030;2023-03-04T01:54:21;102618.47;;;6.06;83.91
71907;BME280;59781;52.090;5.030;2023-03-04T01:56:50;102617.78;;;5.88;85.02
71907;BME280;59781;52.090;5.030;2023-03-04T01:59:22;102613.81;;;5.95;85.57
71907;BME280;59781;52.090;5.030;2023-03-04T02:01:52;102617.94;;;6.27;84.27
71907;BME280;59781;52.090;5.030;2023-03-04T02:04:25;102611.94;;;6.24;83.98
71907;BME280;59781;52.090;5.030;2023-03-04T02:06:55;102608.25;;;5.98;84.98
71907;BME280;59781;52.090;5.030;2023-03-04T02:09:22;102602.31;;;6.07;85.48
71907;BME280;59781;52.090;5.030;2023-03-04T02:11:50;102603.88;;;6.11;85.27
71907;BME280;59781;52.090;5.030;2023-03-04T02:14:19;102607.25;;;6.27;84.14
71907;BME280;59781;52.090;5.030;2023-03-04T02:16:47;102596.31;;;6.03;85.25
71907;BME280;59781;52.090;5.030;2023-03-04T02:19:33;102600.78;;;6.17;85.29
71907;BME280;59781;52.090;5.030;2023-03-04T02:22:10;102594.03;;;5.83;86.45
71907;BME280;59781;52.090;5.030;2023-03-04T02:24:50;102589.53;;;5.98;85.07
71907;BME280;59781;52.090;5.030;2023-03-04T02:27:31;102588.19;;;6.05;83.07
71907;BME280;59781;52.090;5.030;2023-03-04T02:29:57;102588.09;;;6.21;82.43
71907;BME280;59781;52.090;5.030;2023-03-04T02:32:23;102584.59;;;5.92;83.45
71907;BME280;59781;52.090;5.030;2023-03-04T02:34:49;102584.09;;;5.85;83.84
71907;BME280;59781;52.090;5.030;2023-03-04T02:37:17;102575.72;;;5.91;84.36
71907;BME280;59781;52.090;5.030;2023-03-04T02:39:47;102579.97;;;5.80;84.24
71907;BME280;59781;52.090;5.030;2023-03-04T02:42:15;102565.38;;;5.99;83.35
71907;BME280;59781;52.090;5.030;2023-03-04T02:44:44;102563.38;;;6.03;83.86
71907;BME280;59781;52.090;5.030;2023-03-04T02:47:15;102569.22;;;5.95;83.67
71907;BME280;59781;52.090;5.030;2023-03-04T02:49:43;102567.09;;;5.86;84.44
71907;BME280;59781;52.090;5.030;2023-03-04T02:52:12;102565.38;;;5.85;84.70
71907;BME280;59781;52.090;5.030;2023-03-04T02:54:41;102566.34;;;5.98;84.02
71907;BME280;59781;52.090;5.030;2023-03-04T02:57:10;102569.66;;;5.88;85.36
71907;BME280;59781;52.090;5.030;2023-03-04T02:59:41;102572.78;;;6.23;83.09
71907;BME280;59781;52.090;5.030;2023-03-04T03:02:09;102569.00;;;5.84;84.42
71907;BME280;59781;52.090;5.030;2023-03-04T03:04:37;102569.41;;;5.92;85.69
71907;BME280;59781;52.090;5.030;2023-03-04T03:07:07;102555.16;;;5.78;85.16
71907;BME280;59781;52.090;5.030;2023-03-04T03:09:33;102557.97;;;6.17;83.77
71907;BME280;59781;52.090;5.030;2023-03-04T03:11:59;102552.31;;;5.95;83.22
71907;BME280;59781;52.090;5.030;2023-03-04T03:14:25;102553.03;;;6.11;83.62
71907;BME280;59781;52.090;5.030;2023-03-04T03:16:51;102552.97;;;6.25;82.33
71907;BME280;59781;52.090;5.030;2023-03-04T03:19:17;102549.09;;;6.17;83.51
71907;BME280;59781;52.090;5.030;2023-03-04T03:21:43;102555.28;;;6.17;83.18
71907;BME280;59781;52.090;5.030;2023-03-04T03:24:10;102546.56;;;6.28;83.22
71907;BME280;59781;52.090;5.030;2023-03-04T03:26:35;102551.47;;;6.21;83.44
71907;BME280;59781;52.090;5.030;2023-03-04T03:29:01;102554.00;;;6.10;85.47
71907;BME280;59781;52.090;5.030;2023-03-04T03:31:27;102542.53;;;6.08;85.95
71907;BME280;59781;52.090;5.030;2023-03-04T03:33:53;102541.00;;;5.90;86.54
71907;BME280;59781;52.090;5.030;2023-03-04T03:36:19;102543.69;;;6.04;85.85
71907;BME280;59781;52.090;5.030;2023-03-04T03:38:45;102543.31;;;6.10;85.60
71907;BME280;59781;52.090;5.030;2023-03-04T03:41:10;102545.31;;;6.07;84.85
71907;BME280;59781;52.090;5.030;2023-03-04T03:43:36;102541.38;;;6.12;86.09
71907;BME280;59781;52.090;5.030;2023-03-04T03:46:02;102542.44;;;6.10;86.91
71907;BME280;59781;52.090;5.030;2023-03-04T03:48:27;102549.63;;;5.95;86.92
71907;BME280;59781;52.090;5.030;2023-03-04T03:50:53;102545.31;;;6.07;86.54
71907;BME280;59781;52.090;5.030;2023-03-04T03:53:19;102548.34;;;6.42;84.36
71907;BME280;59781;52.090;5.030;2023-03-04T03:55:45;102541.66;;;6.08;86.08
71907;BME280;59781;52.090;5.030;2023-03-04T03:58:10;102536.88;;;6.13;86.95
71907;BME280;59781;52.090;5.030;2023-03-04T04:00:36;102545.81;;;6.26;85.15
71907;BME280;59781;52.090;5.030;2023-03-04T04:03:02;102546.13;;;6.21;85.09
71907;BME280;59781;52.090;5.030;2023-03-04T04:05:28;102540.78;;;6.21;86.42
71907;BME280;59781;52.090;5.030;2023-03-04T04:07:53;102549.56;;;6.23;86.03
71907;BME280;59781;52.090;5.030;2023-03-04T04:10:19;102553.81;;;6.40;85.61
71907;BME280;59781;52.090;5.030;2023-03-04T04:12:45;102546.63;;;6.41;85.10
71907;BME280;59781;52.090;5.030;2023-03-04T04:15:12;102548.41;;;6.00;86.70
71907;BME280;59781;52.090;5.030;2023-03-04T04:17:38;102550.59;;;5.94;88.33
71907;BME280;59781;52.090;5.030;2023-03-04T04:20:06;102553.06;;;5.83;90.48
71907;BME280;59781;52.090;5.030;2023-03-04T04:22:32;102551.47;;;5.94;90.05
71907;BME280;59781;52.090;5.030;2023-03-04T04:24:58;102555.28;;;6.17;88.20
71907;BME280;59781;52.090;5.030;2023-03-04T04:27:24;102556.69;;;6.10;89.27
71907;BME280;59781;52.090;5.030;2023-03-04T04:29:50;102554.41;;;6.04;90.95
71907;BME280;59781;52.090;5.030;2023-03-04T04:32:15;102553.75;;;6.00;92.20
71907;BME280;59781;52.090;5.030;2023-03-04T04:34:41;102550.75;;;6.05;92.30
71907;BME280;59781;52.090;5.030;2023-03-04T04:37:07;102553.06;;;5.97;92.78
71907;BME280;59781;52.090;5.030;2023-03-04T04:39:33;102550.38;;;5.97;94.59
71907;BME280;59781;52.090;5.030;2023-03-04T04:41:58;102557.28;;;6.01;93.12
71907;BME280;59781;52.090;5.030;2023-03-04T04:44:24;102558.13;;;5.87;91.69
71907;BME280;59781;52.090;5.030;2023-03-04T04:46:50;102549.63;;;5.95;91.11
71907;BME280;59781;52.090;5.030;2023-03-04T04:49:15;102556.16;;;5.62;90.85
71907;BME280;59781;52.090;5.030;2023-03-04T04:51:41;102561.97;;;5.83;90.92
71907;BME280;59781;52.090;5.030;2023-03-04T04:54:12;102554.75;;;6.12;89.88
71907;BME280;59781;52.090;5.030;2023-03-04T04:56:39;102563.88;;;5.95;89.31
71907;BME280;59781;52.090;5.030;2023-03-04T04:59:05;102552.13;;;5.84;91.01
71907;BME280;59781;52.090;5.030;2023-03-04T05:01:33;102553.84;;;5.85;90.72
71907;BME280;59781;52.090;5.030;2023-03-04T05:03:59;102560.91;;;5.86;91.11
71907;BME280;59781;52.090;5.030;2023-03-04T05:06:26;102550.84;;;5.89;91.57
71907;BME280;59781;52.090;5.030;2023-03-04T05:08:52;102552.19;;;6.11;90.38
71907;BME280;59781;52.090;5.030;2023-03-04T05:11:18;102552.97;;;5.98;90.05
71907;BME280;59781;52.090;5.030;2023-03-04T05:13:45;102553.81;;;5.99;90.83
71907;BME280;59781;52.090;5.030;2023-03-04T05:16:11;102552.00;;;5.99;90.50
71907;BME280;59781;52.090;5.030;2023-03-04T05:18:37;102560.53;;;5.92;91.00
71907;BME280;59781;52.090;5.030;2023-03-04T05:21:04;102553.22;;;6.08;91.53
71907;BME280;59781;52.090;5.030;2023-03-04T05:23:34;102559.41;;;6.23;90.41
71907;BME280;59781;52.090;5.030;2023-03-04T05:26:03;102554.78;;;5.98;91.60
71907;BME280;59781;52.090;5.030;2023-03-04T05:28:30;102554.50;;;6.02;93.42
71907;BME280;59781;52.090;5.030;2023-03-04T05:30:56;102557.34;;;5.99;93.75
71907;BME280;59781;52.090;5.030;2023-03-04T05:33:22;102557.34;;;5.99;93.91
71907;BME280;59781;52.090;5.030;2023-03-04T05:35:48;102565.00;;;5.77;95.14
71907;BME280;59781;52.090;5.030;2023-03-04T05:38:17;102563.66;;;5.70;96.57
71907;BME280;59781;52.090;5.030;2023-03-04T05:40:45;102564.91;;;5.79;98.12
71907;BME280;59781;52.090;5.030;2023-03-04T05:43:11;102564.50;;;6.13;98.08
71907;BME280;59781;52.090;5.030;2023-03-04T05:45:38;102572.28;;;5.75;98.90
71907;BME280;59781;52.090;5.030;2023-03-04T05:48:05;102570.47;;;5.75;99.52
71907;BME280;59781;52.090;5.030;2023-03-04T05:50:33;102568.75;;;5.74;100.00
71907;BME280;59781;52.090;5.030;2023-03-04T05:52:59;102570.25;;;5.79;100.00
71907;BME280;59781;52.090;5.030;2023-03-04T05:55:25;102564.63;;;5.69;100.00
71907;BME280;59781;52.090;5.030;2023-03-04T05:57:53;102579.97;;;5.80;100.00
71907;BME280;59781;52.090;5.030;2023-03-04T06:00:19;102573.44;;;5.57;100.00
71907;BME280;59781;52.090;5.030;2023-03-04T06:02:44;102580.09;;;5.50;100.00
71907;BME280;59781;52.090;5.030;2023-03-04T06:05:12;102573.41;;;5.28;100.00
71907;BME280;59781;52.090;5.030;2023-03-04T06:07:39;102580.31;;;5.32;100.00
71907;BME280;59781;52.090;5.030;2023-03-04T06:10:08;102575.53;;;5.37;100.00
71907;BME280;59781;52.090;5.030;2023-03-04T06:12:36;102571.53;;;5.44;100.00
71907;BME280;59781;52.090;5.030;2023-03-04T06:15:02;102568.66;;;5.47;100.00
71907;BME280;59781;52.090;5.030;2023-03-04T06:17:29;102567.91;;;5.45;100.00
71907;BME280;59781;52.090;5.030;2023-03-04T06:19:54;102564.84;;;5.52;100.00
71907;BME280;59781;52.090;5.030;2023-03-04T06:22:20;102566.47;;;5.40;100.00
71907;BME280;59781;52.090;5.030;2023-03-04T06:24:46;102567.63;;;5.36;100.00
71907;BME280;59781;52.090;5.030;2023-03-04T06:27:11;102572.19;;;5.34;100.00
71907;BME280;59781;52.090;5.030;2023-03-04T06:29:38;102576.38;;;5.38;100.00
71907;BME280;59781;52.090;5.030;2023-03-04T06:32:04;102581.72;;;5.38;100.00
71907;BME280;59781;52.090;5.030;2023-03-04T06:34:30;102582.69;;;5.37;100.00
71907;BME280;59781;52.090;5.030;2023-03-04T06:36:58;102586.00;;;5.40;100.00
71907;BME280;59781;52.090;5.030;2023-03-04T06:39:24;102581.06;;;5.34;100.00
71907;BME280;59781;52.090;5.030;2023-03-04T06:41:50;102584.41;;;5.38;100.00
71907;BME280;59781;52.090;5.030;2023-03-04T06:44:16;102578.97;;;5.54;100.00
71907;BME280;59781;52.090;5.030;2023-03-04T06:46:42;102568.66;;;5.62;100.00
71907;BME280;59781;52.090;5.030;2023-03-04T06:49:08;102574.78;;;5.64;100.00
71907;BME280;59781;52.090;5.030;2023-03-04T06:51:34;102567.81;;;5.47;100.00
71907;BME280;59781;52.090;5.030;2023-03-04T06:54:00;102571.41;;;5.60;100.00
71907;BME280;59781;52.090;5.030;2023-03-04T06:56:26;102579.19;;;5.51;100.00
71907;BME280;59781;52.090;5.030;2023-03-04T06:58:52;102587.00;;;5.54;100.00
71907;BME280;59781;52.090;5.030;2023-03-04T07:01:26;102582.03;;;5.62;100.00
71907;BME280;59781;52.090;5.030;2023-03-04T07:03:54;102585.44;;;5.78;100.00
71907;BME280;59781;52.090;5.030;2023-03-04T07:06:24;102590.50;;;5.68;100.00
71907;BME280;59781;52.090;5.030;2023-03-04T07:08:51;102590.59;;;5.67;100.00
71907;BME280;59781;52.090;5.030;2023-03-04T07:11:17;102590.91;;;5.62;100.00
71907;BME280;59781;52.090;5.030;2023-03-04T07:13:44;102594.13;;;5.67;100.00
71907;BME280;59781;52.090;5.030;2023-03-04T07:16:13;102596.53;;;5.72;100.00
71907;BME280;59781;52.090;5.030;2023-03-04T07:18:43;102596.72;;;5.83;100.00
71907;BME280;59781;52.090;5.030;2023-03-04T07:21:12;102596.16;;;5.92;100.00
71907;BME280;59781;52.090;5.030;2023-03-04T07:23:40;102592.50;;;5.79;100.00
71907;BME280;59781;52.090;5.030;2023-03-04T07:26:06;102590.19;;;5.87;100.00
71907;BME280;59781;52.090;5.030;2023-03-04T07:28:32;102603.50;;;6.03;100.00
71907;BME280;59781;52.090;5.030;2023-03-04T07:31:18;102598.63;;;5.81;100.00
71907;BME280;59781;52.090;5.030;2023-03-04T07:33:46;102601.09;;;6.13;100.00
71907;BME280;59781;52.090;5.030;2023-03-04T07:36:12;102599.47;;;6.10;100.00
71907;BME280;59781;52.090;5.030;2023-03-04T07:38:42;102593.66;;;6.03;100.00
71907;BME280;59781;52.090;5.030;2023-03-04T07:41:12;102611.00;;;6.25;100.00
71907;BME280;59781;52.090;5.030;2023-03-04T07:43:38;102592.16;;;6.26;100.00
71907;BME280;59781;52.090;5.030;2023-03-04T07:46:04;102599.47;;;6.37;100.00
71907;BME280;59781;52.090;5.030;2023-03-04T07:48:30;102599.88;;;6.58;100.00
71907;BME280;59781;52.090;5.030;2023-03-04T07:53:39;102601.13;;;6.25;100.00
71907;BME280;59781;52.090;5.030;2023-03-04T07:56:07;102605.03;;;6.61;100.00
71907;BME280;59781;52.090;5.030;2023-03-04T07:58:37;102605.19;;;6.85;100.00
71907;BME280;59781;52.090;5.030;2023-03-04T08:01:14;102599.56;;;6.89;100.00
71907;BME280;59781;52.090;5.030;2023-03-04T08:03:41;102608.00;;;6.83;100.00
71907;BME280;59781;52.090;5.030;2023-03-04T08:06:10;102604.06;;;6.89;100.00
71907;BME280;59781;52.090;5.030;2023-03-04T08:08:38;102606.31;;;7.08;100.00
71907;BME280;59781;52.090;5.030;2023-03-04T08:11:12;102601.16;;;7.17;100.00
71907;BME280;59781;52.090;5.030;2023-03-04T08:13:43;102607.03;;;6.97;100.00
71907;BME280;59781;52.090;5.030;2023-03-04T08:16:12;102615.63;;;7.02;100.00
71907;BME280;59781;52.090;5.030;2023-03-04T08:18:41;102612.84;;;7.04;100.00
71907;BME280;59781;52.090;5.030;2023-03-04T08:21:14;102614.66;;;6.90;100.00
71907;BME280;59781;52.090;5.030;2023-03-04T08:23:40;102619.41;;;7.25;100.00
71907;BME280;59781;52.090;5.030;2023-03-04T08:26:19;102609.03;;;7.21;100.00
71907;BME280;59781;52.090;5.030;2023-03-04T08:28:53;102619.50;;;7.24;100.00
71907;BME280;59781;52.090;5.030;2023-03-04T08:31:21;102612.97;;;7.53;100.00
71907;BME280;59781;52.090;5.030;2023-03-04T08:33:49;102609.53;;;8.26;100.00
71907;BME280;59781;52.090;5.030;2023-03-04T08:36:17;102604.13;;;8.62;100.00
71907;BME280;59781;52.090;5.030;2023-03-04T08:38:42;102606.84;;;9.55;93.26
71907;BME280;59781;52.090;5.030;2023-03-04T08:41:08;102607.00;;;9.07;95.25
71907;BME280;59781;52.090;5.030;2023-03-04T08:43:34;102609.38;;;8.88;94.79
71907;BME280;59781;52.090;5.030;2023-03-04T08:46:00;102606.47;;;8.67;97.27
71907;BME280;59781;52.090;5.030;2023-03-04T08:48:26;102606.94;;;8.85;96.40
71907;BME280;59781;52.090;5.030;2023-03-04T08:50:52;102601.00;;;8.69;98.21
71907;BME280;59781;52.090;5.030;2023-03-04T08:53:19;102604.31;;;8.83;97.97
71907;BME280;59781;52.090;5.030;2023-03-04T08:55:46;102597.84;;;8.51;98.95
71907;BME280;59781;52.090;5.030;2023-03-04T08:58:13;102611.25;;;8.27;100.00
71907;BME280;59781;52.090;5.030;2023-03-04T09:00:42;102607.03;;;7.99;100.00
71907;BME280;59781;52.090;5.030;2023-03-04T09:03:13;102605.19;;;7.99;100.00
71907;BME280;59781;52.090;5.030;2023-03-04T09:05:39;102605.72;;;8.04;100.00
71907;BME280;59781;52.090;5.030;2023-03-04T09:08:06;102601.91;;;8.20;100.00
71907;BME280;59781;52.090;5.030;2023-03-04T09:10:32;102604.34;;;7.99;100.00
71907;BME280;59781;52.090;5.030;2023-03-04T09:12:58;102612.66;;;7.45;100.00
71907;BME280;59781;52.090;5.030;2023-03-04T09:15:25;102607.94;;;7.61;100.00
71907;BME280;59781;52.090;5.030;2023-03-04T09:17:51;102614.03;;;7.63;100.00
71907;BME280;59781;52.090;5.030;2023-03-04T09:20:16;102607.41;;;7.69;100.00
71907;BME280;59781;52.090;5.030;2023-03-04T09:22:42;102615.13;;;7.35;100.00
71907;BME280;59781;52.090;5.030;2023-03-04T09:25:12;102614.06;;;7.38;100.00
71907;BME280;59781;52.090;5.030;2023-03-04T09:27:40;102617.72;;;7.50;100.00
71907;BME280;59781;52.090;5.030;2023-03-04T09:30:07;102617.28;;;7.43;100.00
71907;BME280;59781;52.090;5.030;2023-03-04T09:32:33;102615.66;;;7.53;100.00
71907;BME280;59781;52.090;5.030;2023-03-04T09:34:59;102617.28;;;7.43;100.00
71907;BME280;59781;52.090;5.030;2023-03-04T09:37:24;102626.47;;;7.26;100.00
71907;BME280;59781;52.090;5.030;2023-03-04T09:39:50;102620.06;;;7.80;100.00
71907;BME280;59781;52.090;5.030;2023-03-04T09:42:37;102612.59;;;7.96;100.00
71907;BME280;59781;52.090;5.030;2023-03-04T09:45:16;102609.75;;;8.23;100.00
71907;BME280;59781;52.090;5.030;2023-03-04T09:47:48;102608.06;;;8.09;100.00
71907;BME280;59781;52.090;5.030;2023-03-04T09:50:20;102605.22;;;8.23;100.00
71907;BME280;59781;52.090;5.030;2023-03-04T09:55:48;102611.38;;;8.13;100.00
71907;BME280;59781;52.090;5.030;2023-03-04T10:01:21;102602.31;;;7.90;100.00
71907;BME280;59781;52.090;5.030;2023-03-04T10:06:24;102598.09;;;9.29;100.00
71907;BME280;59781;52.090;5.030;2023-03-04T10:09:03;102582.38;;;9.47;100.00
71907;BME280;59781;52.090;5.030;2023-03-04T10:11:44;102584.28;;;9.23;100.00
71907;BME280;59781;52.090;5.030;2023-03-04T10:17:33;102576.13;;;9.46;100.00
71907;BME280;59781;52.090;5.030;2023-03-04T10:25:24;102577.34;;;9.42;100.00
71907;BME280;59781;52.090;5.030;2023-03-04T10:27:58;102567.09;;;9.47;100.00
71907;BME280;59781;52.090;5.030;2023-03-04T10:31:18;102570.25;;;9.41;100.00
71907;BME280;59781;52.090;5.030;2023-03-04T10:33:47;102560.59;;;9.72;100.00
71907;BME280;59781;52.090;5.030;2023-03-04T10:39:21;102568.59;;;10.17;100.00
71907;BME280;59781;52.090;5.030;2023-03-04T10:42:03;102567.56;;;9.75;100.00
71907;BME280;59781;52.090;5.030;2023-03-04T10:44:55;102563.53;;;9.69;100.00
71907;BME280;59781;52.090;5.030;2023-03-04T10:47:28;102567.28;;;9.11;100.00
71907;BME280;59781;52.090;5.030;2023-03-04T10:49:58;102567.47;;;8.50;100.00
71907;BME280;59781;52.090;5.030;2023-03-04T10:52:31;102567.53;;;9.08;100.00
71907;BME280;59781;52.090;5.030;2023-03-04T10:55:16;102569.34;;;9.07;100.00
71907;BME280;59781;52.090;5.030;2023-03-04T10:57:52;102561.31;;;8.72;100.00
71907;BME280;59781;52.090;5.030;2023-03-04T11:00:27;102559.16;;;8.77;100.00
71907;BME280;59781;52.090;5.030;2023-03-04T11:03:19;102554.56;;;9.02;100.00
71907;BME280;59781;52.090;5.030;2023-03-04T11:05:49;102559.22;;;9.33;100.00
71907;BME280;59781;52.090;5.030;2023-03-04T11:08:21;102561.06;;;9.22;100.00
71907;BME280;59781;52.090;5.030;2023-03-04T11:10:49;102552.75;;;9.81;100.00
71907;BME280;59781;52.090;5.030;2023-03-04T11:13:19;102547.34;;;10.03;100.00
71907;BME280;59781;52.090;5.030;2023-03-04T11:15:52;102541.25;;;11.28;100.00
71907;BME280;59781;52.090;5.030;2023-03-04T11:18:48;102541.94;;;10.78;99.99
71907;BME280;59781;52.090;5.030;2023-03-04T11:21:20;102540.09;;;10.58;100.00
71907;BME280;59781;52.090;5.030;2023-03-04T11:24:02;102532.25;;;10.12;100.00
71907;BME280;59781;52.090;5.030;2023-03-04T11:26:40;102529.03;;;9.63;100.00
71907;BME280;59781;52.090;5.030;2023-03-04T11:29:37;102531.75;;;9.30;100.00
71907;BME280;59781;52.090;5.030;2023-03-04T11:32:27;102533.91;;;9.02;100.00
71907;BME280;59781;52.090;5.030;2023-03-04T11:38:22;102536.53;;;8.69;100.00
71907;BME280;59781;52.090;5.030;2023-03-04T11:40:58;102541.66;;;8.37;100.00
71907;BME280;59781;52.090;5.030;2023-03-04T11:43:41;102526.09;;;8.29;100.00
71907;BME280;59781;52.090;5.030;2023-03-04T11:52:34;102549.81;;;7.62;100.00
71907;BME280;59781;52.090;5.030;2023-03-04T11:57:58;102542.75;;;7.97;100.00
71907;BME280;59781;52.090;5.030;2023-03-04T12:04:35;102519.38;;;10.58;100.00
71907;BME280;59781;52.090;5.030;2023-03-04T12:07:20;102514.75;;;9.52;100.00
71907;BME280;59781;52.090;5.030;2023-03-04T12:10:45;102516.44;;;8.97;100.00
71907;BME280;59781;52.090;5.030;2023-03-04T12:27:51;102532.69;;;8.12;100.00
71907;BME280;59781;52.090;5.030;2023-03-04T12:39:39;102516.91;;;7.47;100.00
71907;BME280;59781;52.090;5.030;2023-03-04T12:51:05;102495.84;;;7.66;100.00
71907;BME280;59781;52.090;5.030;2023-03-04T12:56:35;102487.59;;;7.69;100.00
71907;BME280;59781;52.090;5.030;2023-03-04T12:59:13;102485.28;;;7.76;100.00
71907;BME280;59781;52.090;5.030;2023-03-04T13:02:13;102487.94;;;8.13;100.00
71907;BME280;59781;52.090;5.030;2023-03-04T13:08:42;102477.13;;;8.49;100.00
71907;BME280;59781;52.090;5.030;2023-03-04T13:11:31;102461.69;;;10.40;100.00
71907;BME280;59781;52.090;5.030;2023-03-04T13:14:04;102451.38;;;10.24;100.00
71907;BME280;59781;52.090;5.030;2023-03-04T13:16:51;102459.84;;;9.65;100.00
71907;BME280;59781;52.090;5.030;2023-03-04T13:38:23;102443.41;;;8.10;100.00
71907;BME280;59781;52.090;5.030;2023-03-04T13:41:13;102451.34;;;8.12;100.00
71907;BME280;59781;52.090;5.030;2023-03-04T13:43:59;102453.41;;;8.08;100.00
71907;BME280;59781;52.090;5.030;2023-03-04T13:51:38;102435.19;;;8.82;100.00
71907;BME280;59781;52.090;5.030;2023-03-04T13:54:28;102446.78;;;8.71;100.00
71907;BME280;59781;52.090;5.030;2023-03-04T13:59:33;102427.16;;;8.93;99.47
71907;BME280;59781;52.090;5.030;2023-03-04T14:02:14;102420.91;;;8.81;95.86
71907;BME280;59781;52.090;5.030;2023-03-04T14:04:55;102425.75;;;8.54;95.13
71907;BME280;59781;52.090;5.030;2023-03-04T14:07:26;102427.88;;;8.26;94.88
71907;BME280;59781;52.090;5.030;2023-03-04T14:10:06;102426.31;;;8.35;94.56
71907;BME280;59781;52.090;5.030;2023-03-04T14:17:43;102416.63;;;8.21;93.58
71907;BME280;59781;52.090;5.030;2023-03-04T14:20:28;102412.91;;;8.35;94.52
71907;BME280;59781;52.090;5.030;2023-03-04T14:22:59;102410.41;;;8.56;91.41
71907;BME280;59781;52.090;5.030;2023-03-04T14:25:30;102419.41;;;8.55;92.73
71907;BME280;59781;52.090;5.030;2023-03-04T14:28:10;102406.28;;;8.85;90.90
71907;BME280;59781;52.090;5.030;2023-03-04T14:30:49;102407.59;;;8.80;93.30
71907;BME280;59781;52.090;5.030;2023-03-04T14:33:22;102405.50;;;8.61;95.64
71907;BME280;59781;52.090;5.030;2023-03-04T14:35:53;102399.03;;;8.63;93.63
71907;BME280;59781;52.090;5.030;2023-03-04T14:41:14;102397.69;;;8.47;92.22
71907;BME280;59781;52.090;5.030;2023-03-04T14:44:12;102394.28;;;8.56;94.22
71907;BME280;59781;52.090;5.030;2023-03-04T14:49:43;102394.66;;;8.16;94.79
71907;BME280;59781;52.090;5.030;2023-03-04T14:52:49;102390.06;;;8.29;96.21
71907;BME280;59781;52.090;5.030;2023-03-04T14:55:27;102397.06;;;8.08;96.92
71907;BME280;59781;52.090;5.030;2023-03-04T14:58:06;102384.72;;;8.41;94.87
71907;BME280;59781;52.090;5.030;2023-03-04T15:00:35;102394.88;;;8.37;96.61
71907;BME280;59781;52.090;5.030;2023-03-04T15:03:24;102396.97;;;7.62;98.12
71907;BME280;59781;52.090;5.030;2023-03-04T15:05:52;102399.31;;;7.42;100.00
71907;BME280;59781;52.090;5.030;2023-03-04T15:08:27;102397.19;;;6.98;100.00